createdAt,value
2022-10-20T00:00:42.723Z,7.80
2022-10-20T00:03:09.694Z,7.20
2022-10-20T00:05:36.286Z,8.27
2022-10-20T00:08:02.862Z,8.00
2022-10-20T00:10:29.541Z,7.30
2022-10-20T00:12:56.105Z,6.87
2022-10-20T00:15:22.769Z,6.67
2022-10-20T00:17:49.467Z,7.50
2022-10-20T00:20:24.338Z,7.63
2022-10-20T00:22:51.397Z,7.27
2022-10-20T00:25:18.101Z,7.30
2022-10-20T00:27:44.738Z,7.73
2022-10-20T00:30:11.499Z,7.90
2022-10-20T00:32:38.595Z,7.30
2022-10-20T00:35:05.764Z,6.73
2022-10-20T00:37:32.422Z,7.07
2022-10-20T00:39:59.338Z,7.33
2022-10-20T00:42:25.963Z,7.97
2022-10-20T00:44:58.258Z,8.03
2022-10-20T00:47:37.175Z,7.23
2022-10-20T00:50:24.461Z,8.47
2022-10-20T00:52:53.485Z,8.13
2022-10-20T00:55:25.387Z,7.60
2022-10-20T00:57:52.889Z,8.20
2022-10-20T01:00:19.951Z,9.03
2022-10-20T01:02:46.889Z,8.30
2022-10-20T01:05:14.152Z,8.50
2022-10-20T01:07:41.022Z,8.50
2022-10-20T01:10:08.518Z,7.50
2022-10-20T01:12:50.025Z,8.50
2022-10-20T01:15:39.286Z,7.33
2022-10-20T01:18:15.857Z,8.70
2022-10-20T01:21:04.771Z,7.20
2022-10-20T01:23:47.375Z,8.23
2022-10-20T01:26:29.491Z,7.47
2022-10-20T01:29:03.431Z,8.93
2022-10-20T01:31:36.222Z,8.47
2022-10-20T01:34:27.049Z,7.40
2022-10-20T01:37:02.445Z,7.00
2022-10-20T01:39:35.294Z,8.03
2022-10-20T01:42:10.966Z,7.97
2022-10-20T01:44:41.116Z,8.20
2022-10-20T01:47:09.565Z,8.97
2022-10-20T01:49:36.564Z,8.00
2022-10-20T01:52:03.344Z,8.50
2022-10-20T01:54:30.357Z,8.67
2022-10-20T01:57:13.182Z,7.83
2022-10-20T02:00:03.334Z,8.40
2022-10-20T02:02:37.526Z,8.30
2022-10-20T02:05:18.486Z,8.80
2022-10-20T02:07:45.265Z,8.17
2022-10-20T02:10:18.968Z,8.70
2022-10-20T02:12:50.660Z,8.17
2022-10-20T02:15:22.256Z,8.20
2022-10-20T02:17:54.901Z,7.77
2022-10-20T02:20:21.897Z,7.53
2022-10-20T02:22:49.397Z,9.00
2022-10-20T02:25:16.303Z,7.50
2022-10-20T02:27:47.460Z,7.60
2022-10-20T02:30:17.281Z,8.97
2022-10-20T02:32:49.186Z,8.53
2022-10-20T02:35:20.608Z,7.57
2022-10-20T02:37:47.264Z,9.20
2022-10-20T02:40:14.451Z,8.83
2022-10-20T02:42:43.341Z,7.83
2022-10-20T02:45:10.978Z,7.90
2022-10-20T02:47:38.299Z,7.67
2022-10-20T02:50:06.422Z,7.50
2022-10-20T02:52:33.256Z,8.60
2022-10-20T02:55:00.445Z,8.43
2022-10-20T02:57:27.375Z,8.23
2022-10-20T02:59:54.401Z,7.87
2022-10-20T03:02:21.005Z,7.80
2022-10-20T03:04:47.642Z,8.50
2022-10-20T03:07:14.787Z,7.70
2022-10-20T03:09:41.436Z,8.20
2022-10-20T03:12:08.112Z,8.17
2022-10-20T03:14:34.735Z,7.57
2022-10-20T03:17:01.295Z,7.43
2022-10-20T03:19:28.036Z,8.00
2022-10-20T03:21:54.846Z,9.30
2022-10-20T03:24:21.542Z,7.83
2022-10-20T03:26:48.358Z,8.67
2022-10-20T03:29:14.970Z,8.47
2022-10-20T03:31:41.813Z,8.07
2022-10-20T03:34:08.643Z,8.43
2022-10-20T03:36:35.254Z,8.03
2022-10-20T03:39:01.866Z,8.00
2022-10-20T03:41:28.445Z,8.97
2022-10-20T03:43:55.040Z,7.63
2022-10-20T03:46:21.833Z,7.53
2022-10-20T03:48:48.524Z,7.37
2022-10-20T03:51:15.489Z,7.50
2022-10-20T03:53:42.378Z,8.03
2022-10-20T03:56:10.716Z,8.97
2022-10-20T03:58:37.534Z,7.40
2022-10-20T04:01:06.387Z,9.10
2022-10-20T04:03:33.092Z,8.37
2022-10-20T04:05:59.678Z,8.07
2022-10-20T04:08:26.673Z,7.90
2022-10-20T04:10:53.326Z,8.33
2022-10-20T04:13:19.949Z,8.40
2022-10-20T04:15:46.648Z,8.83
2022-10-20T04:18:13.278Z,9.57
2022-10-20T04:20:43.502Z,8.50
2022-10-20T04:23:11.404Z,9.37
2022-10-20T04:25:45.350Z,8.60
2022-10-20T04:28:13.688Z,8.97
2022-10-20T04:30:40.358Z,9.30
2022-10-20T04:33:07.320Z,9.43
2022-10-20T04:35:34.003Z,7.70
2022-10-20T04:38:00.753Z,8.50
2022-10-20T04:40:27.357Z,8.60
2022-10-20T04:42:54.030Z,8.93
2022-10-20T04:45:20.940Z,8.13
2022-10-20T04:47:47.510Z,8.10
2022-10-20T04:50:14.191Z,8.23
2022-10-20T04:52:40.983Z,9.47
2022-10-20T04:55:08.074Z,9.20
2022-10-20T04:57:35.006Z,9.40
2022-10-20T05:00:02.202Z,8.73
2022-10-20T05:02:30.008Z,8.40
2022-10-20T05:04:56.604Z,8.73
2022-10-20T05:07:23.239Z,9.00
2022-10-20T05:09:49.834Z,10.10
2022-10-20T05:12:16.471Z,8.87
2022-10-20T05:14:43.247Z,8.43
2022-10-20T05:17:10.161Z,8.87
2022-10-20T05:19:36.928Z,8.67
2022-10-20T05:22:03.567Z,9.40
2022-10-20T05:24:30.344Z,8.23
2022-10-20T05:26:56.998Z,9.23
2022-10-20T05:29:24.091Z,8.70
2022-10-20T05:31:50.690Z,9.50
2022-10-20T05:34:17.873Z,8.43
2022-10-20T05:36:44.596Z,9.07
2022-10-20T05:39:11.395Z,9.07
2022-10-20T05:41:39.265Z,8.37
2022-10-20T05:44:08.740Z,9.10
2022-10-20T05:46:38.356Z,9.30
2022-10-20T05:49:04.996Z,9.20
2022-10-20T05:51:35.280Z,7.70
2022-10-20T05:54:02.790Z,8.30
2022-10-20T05:56:31.689Z,9.63
2022-10-20T05:58:58.569Z,8.43
2022-10-20T06:01:40.256Z,8.63
2022-10-20T06:04:08.689Z,9.20
2022-10-20T06:06:36.203Z,8.57
2022-10-20T06:09:06.256Z,10.33
2022-10-20T06:11:38.406Z,8.97
2022-10-20T06:14:06.832Z,10.00
2022-10-20T06:16:33.678Z,8.63
2022-10-20T06:19:00.763Z,10.10
2022-10-20T06:21:30.264Z,11.57
2022-10-20T06:24:01.651Z,9.97
2022-10-20T06:26:29.990Z,9.23
2022-10-20T06:29:03.671Z,11.13
2022-10-20T06:31:34.129Z,9.50
2022-10-20T06:34:01.377Z,9.50
2022-10-20T06:36:28.329Z,8.97
2022-10-20T06:38:59.308Z,9.73
2022-10-20T06:41:27.533Z,8.67
2022-10-20T06:43:58.905Z,10.00
2022-10-20T06:46:31.179Z,8.90
2022-10-20T06:49:01.349Z,9.40
2022-10-20T06:51:28.123Z,8.80
2022-10-20T06:53:55.190Z,9.87
2022-10-20T06:56:25.394Z,10.60
2022-10-20T06:58:54.494Z,9.90
2022-10-20T07:01:30.394Z,9.17
2022-10-20T07:04:02.922Z,8.70
2022-10-20T07:06:35.264Z,8.90
2022-10-20T07:09:03.932Z,9.83
2022-10-20T07:11:31.714Z,9.90
2022-10-20T07:13:59.500Z,9.77
2022-10-20T07:16:28.820Z,9.47
2022-10-20T07:18:57.255Z,9.30
2022-10-20T07:21:32.234Z,8.80
2022-10-20T07:24:04.559Z,8.93
2022-10-20T07:26:33.851Z,8.60
2022-10-20T07:29:01.683Z,9.90
2022-10-20T07:31:33.148Z,9.47
2022-10-20T07:34:13.704Z,8.63
2022-10-20T07:36:47.663Z,9.17
2022-10-20T07:39:17.228Z,8.57
2022-10-20T07:41:45.755Z,9.17
2022-10-20T07:44:17.306Z,9.47
2022-10-20T07:46:44.946Z,9.00
2022-10-20T07:51:59.157Z,9.83
2022-10-20T07:54:26.082Z,9.73
2022-10-20T07:56:53.062Z,9.30
2022-10-20T07:59:19.963Z,9.07
2022-10-20T08:01:47.032Z,9.50
2022-10-20T08:04:14.031Z,8.93
2022-10-20T08:06:40.659Z,10.13
2022-10-20T08:09:07.655Z,9.13
2022-10-20T08:11:35.184Z,8.87
2022-10-20T08:14:02.113Z,8.40
2022-10-20T08:16:28.869Z,9.20
2022-10-20T08:21:38.141Z,10.10
2022-10-20T08:24:04.906Z,8.87
2022-10-20T08:26:31.527Z,8.73
2022-10-20T08:28:58.393Z,8.70
2022-10-20T08:31:25.062Z,9.63
2022-10-20T08:33:53.069Z,9.03
2022-10-20T08:36:20.764Z,9.70
2022-10-20T08:38:47.712Z,10.23
2022-10-20T08:41:22.838Z,9.60
2022-10-20T08:43:51.799Z,9.03
2022-10-20T08:46:20.817Z,8.37
2022-10-20T08:48:48.286Z,10.13
2022-10-20T08:51:28.328Z,9.70
2022-10-20T08:53:58.210Z,9.83
2022-10-20T08:56:28.352Z,9.53
2022-10-20T08:58:55.044Z,10.33
2022-10-20T09:01:27.914Z,9.33
2022-10-20T09:04:14.226Z,9.30
2022-10-20T09:06:43.915Z,9.00
2022-10-20T09:09:17.829Z,10.47
2022-10-20T09:11:45.119Z,9.27
2022-10-20T09:14:12.730Z,9.03
2022-10-20T09:16:58.561Z,8.97
2022-10-20T09:19:27.142Z,9.80
2022-10-20T09:21:57.858Z,9.10
2022-10-20T09:24:27.317Z,9.10
2022-10-20T09:27:01.417Z,9.03
2022-10-20T09:29:36.844Z,8.40
2022-10-20T09:32:27.274Z,8.90
2022-10-20T09:34:50.315Z,8.40
2022-10-20T09:37:19.334Z,8.03
2022-10-20T09:39:55.734Z,8.20
2022-10-20T09:42:30.063Z,7.90
2022-10-20T09:45:18.214Z,7.83
2022-10-20T09:47:48.494Z,7.10
2022-10-20T09:50:26.263Z,7.20
2022-10-20T09:52:53.372Z,8.30
2022-10-20T09:55:28.761Z,6.77
2022-10-20T09:57:57.685Z,7.87
2022-10-20T10:00:37.213Z,7.60
2022-10-20T10:03:08.591Z,7.33
2022-10-20T10:05:35.786Z,8.17
2022-10-20T10:08:02.512Z,7.20
2022-10-20T10:10:31.603Z,7.93
2022-10-20T10:13:01.213Z,7.60
2022-10-20T10:15:34.501Z,7.67
2022-10-20T10:18:13.234Z,8.33
2022-10-20T10:20:40.581Z,8.90
2022-10-20T10:23:21.069Z,7.53
2022-10-20T10:25:49.083Z,6.70
2022-10-20T10:28:31.887Z,7.20
2022-10-20T10:31:22.062Z,7.67
2022-10-20T10:33:52.487Z,7.93
2022-10-20T10:36:30.348Z,9.27
2022-10-20T10:38:58.715Z,8.40
2022-10-20T10:41:49.321Z,9.37
2022-10-20T10:44:34.244Z,8.00
2022-10-20T10:47:30.312Z,7.97
2022-10-20T10:50:21.775Z,7.90
2022-10-20T10:52:54.341Z,7.70
2022-10-20T10:55:51.809Z,7.20
2022-10-20T10:58:40.004Z,7.40
2022-10-20T11:01:28.529Z,8.00
2022-10-20T11:04:12.709Z,7.53
2022-10-20T11:07:01.302Z,7.10
2022-10-20T11:09:59.403Z,7.50
2022-10-20T11:12:54.176Z,7.10
2022-10-20T11:15:39.316Z,7.80
2022-10-20T11:18:36.861Z,7.17
2022-10-20T11:21:32.619Z,8.20
2022-10-20T11:24:28.139Z,8.30
2022-10-20T11:27:04.635Z,8.90
2022-10-20T11:30:08.894Z,7.90
2022-10-20T11:33:04.810Z,7.07
2022-10-20T11:35:40.215Z,8.33
2022-10-20T11:38:19.119Z,8.70
2022-10-20T11:40:57.771Z,8.23
2022-10-20T11:43:32.730Z,8.27
2022-10-20T11:46:12.306Z,8.17
2022-10-20T11:48:47.867Z,8.30
2022-10-20T11:51:34.627Z,8.40
2022-10-20T11:54:18.125Z,9.13
2022-10-20T11:57:07.533Z,8.43
2022-10-20T11:59:54.360Z,8.30
2022-10-20T12:02:53.258Z,8.30
2022-10-20T12:05:34.989Z,8.43
2022-10-20T12:08:42.337Z,9.30
2022-10-20T12:11:21.519Z,8.60
2022-10-20T12:13:58.716Z,9.77
2022-10-20T12:16:53.765Z,9.43
2022-10-20T12:19:24.795Z,10.00
2022-10-20T12:22:01.060Z,9.30
2022-10-20T12:24:54.617Z,9.47
2022-10-20T12:27:42.121Z,9.70
2022-10-20T12:30:17.895Z,10.40
2022-10-20T12:32:58.627Z,9.33
2022-10-20T12:35:25.532Z,9.70
2022-10-20T12:38:06.593Z,10.30
2022-10-20T12:41:08.949Z,9.30
2022-10-20T12:43:47.688Z,10.40
2022-10-20T12:46:21.187Z,10.20
2022-10-20T12:48:56.707Z,10.60
2022-10-20T12:51:34.360Z,10.30
2022-10-20T12:54:06.509Z,11.03
2022-10-20T12:56:37.640Z,10.70
2022-10-20T12:59:35.155Z,11.13
2022-10-20T13:02:11.025Z,10.83
2022-10-20T13:05:08.180Z,11.87
2022-10-20T13:07:47.063Z,12.43
2022-10-20T13:10:35.024Z,11.87
2022-10-20T13:13:01.884Z,11.23
2022-10-20T13:15:31.624Z,12.03
2022-10-20T13:18:12.987Z,12.43
2022-10-20T13:20:51.536Z,12.30
2022-10-20T13:23:33.492Z,11.00
2022-10-20T13:26:14.422Z,11.50
2022-10-20T13:28:46.855Z,12.03
2022-10-20T13:31:32.823Z,12.30
2022-10-20T13:34:31.971Z,12.77
2022-10-20T13:37:06.083Z,11.23
2022-10-20T13:39:53.093Z,12.33
2022-10-20T13:42:49.536Z,12.67
2022-10-20T13:45:25.311Z,12.67
2022-10-20T13:48:13.329Z,12.60
2022-10-20T13:50:44.007Z,13.00
2022-10-20T13:53:22.332Z,11.60
2022-10-20T13:56:06.848Z,11.33
2022-10-20T13:58:34.787Z,11.63
2022-10-20T14:01:16.916Z,13.10
2022-10-20T14:03:45.876Z,12.40
2022-10-20T14:06:28.140Z,12.47
2022-10-20T14:08:56.653Z,13.23
2022-10-20T14:11:24.257Z,12.10
2022-10-20T14:13:51.405Z,11.87
2022-10-20T14:16:26.087Z,11.80
2022-10-20T14:19:10.523Z,11.00
2022-10-20T14:21:43.408Z,10.97
2022-10-20T14:24:16.546Z,12.13
2022-10-20T14:26:44.451Z,11.17
2022-10-20T14:29:17.384Z,11.23
2022-10-20T14:31:46.900Z,10.30
2022-10-20T14:34:56.834Z,10.57
2022-10-20T14:37:32.485Z,11.90
2022-10-20T14:40:07.378Z,10.90
2022-10-20T14:42:34.661Z,11.40
2022-10-20T14:45:04.370Z,11.10
2022-10-20T14:47:39.348Z,10.30
2022-10-20T14:50:06.971Z,9.27
2022-10-20T14:52:38.689Z,10.37
2022-10-20T14:55:28.729Z,9.50
2022-10-20T14:57:55.975Z,10.17
2022-10-20T15:00:32.075Z,8.93
2022-10-20T15:03:02.969Z,10.20
2022-10-20T15:05:32.567Z,9.73
2022-10-20T15:08:08.569Z,10.30
2022-10-20T15:10:35.341Z,9.50
2022-10-20T15:13:02.134Z,10.00
2022-10-20T15:15:36.234Z,9.27
2022-10-20T15:18:06.082Z,8.40
2022-10-20T15:20:39.532Z,9.00
2022-10-20T15:23:21.333Z,9.20
2022-10-20T15:26:04.333Z,8.80
2022-10-20T15:28:36.740Z,9.50
2022-10-20T15:31:16.945Z,9.10
2022-10-20T15:33:44.162Z,9.40
2022-10-20T15:36:16.139Z,10.03
2022-10-20T15:38:43.343Z,9.00
2022-10-20T15:41:24.973Z,9.30
2022-10-20T15:43:52.326Z,9.03
2022-10-20T15:46:19.747Z,9.03
2022-10-20T15:48:46.924Z,8.17
2022-10-20T15:51:24.015Z,8.70
2022-10-20T15:53:50.630Z,8.57
2022-10-20T15:56:17.797Z,9.03
2022-10-20T15:58:44.731Z,9.27
2022-10-20T16:01:16.695Z,8.90
2022-10-20T16:03:43.923Z,8.53
2022-10-20T16:06:14.962Z,8.80
2022-10-20T16:08:43.242Z,9.30
2022-10-20T16:11:10.805Z,8.60
2022-10-20T16:13:40.632Z,8.70
2022-10-20T16:16:14.027Z,10.00
2022-10-20T16:18:40.646Z,8.90
2022-10-20T16:21:07.707Z,8.07
2022-10-20T16:23:42.386Z,7.80
2022-10-20T16:26:13.884Z,8.00
2022-10-20T16:28:40.822Z,8.87
2022-10-20T16:31:14.062Z,8.77
2022-10-20T16:33:40.922Z,8.43
2022-10-20T16:36:09.784Z,8.60
2022-10-20T16:38:40.053Z,8.30
2022-10-20T16:41:13.905Z,8.47
2022-10-20T16:43:42.595Z,8.37
2022-10-20T16:46:10.920Z,8.80
2022-10-20T16:48:41.371Z,9.30
2022-10-20T16:51:11.161Z,7.93
2022-10-20T16:53:38.340Z,9.50
2022-10-20T16:56:05.348Z,8.73
2022-10-20T16:58:31.997Z,9.00
2022-10-20T17:01:04.299Z,10.03
2022-10-20T17:03:31.141Z,9.30
2022-10-20T17:06:06.718Z,8.90
2022-10-20T17:08:34.926Z,10.30
2022-10-20T17:11:09.385Z,9.80
2022-10-20T17:13:37.896Z,9.93
2022-10-20T17:16:21.559Z,9.50
2022-10-20T17:18:50.220Z,9.60
2022-10-20T17:21:16.968Z,9.57
2022-10-20T17:23:44.900Z,8.80
2022-10-20T17:26:15.004Z,8.63
2022-10-20T17:28:42.393Z,8.80
2022-10-20T17:31:11.246Z,9.83
2022-10-20T17:33:38.727Z,9.77
2022-10-20T17:36:06.624Z,9.87
2022-10-20T17:38:33.629Z,9.03
2022-10-20T17:41:08.406Z,9.23
2022-10-20T17:43:35.689Z,9.10
2022-10-20T17:46:05.238Z,10.40
2022-10-20T17:48:32.157Z,9.03
2022-10-20T17:51:02.709Z,10.27
2022-10-20T17:53:32.097Z,10.10
2022-10-20T17:56:07.248Z,10.97
2022-10-20T17:58:34.282Z,10.00
2022-10-20T18:01:15.288Z,10.27
2022-10-20T18:03:42.620Z,9.73
2022-10-20T18:06:12.988Z,9.27
2022-10-20T18:08:40.450Z,10.70
2022-10-20T18:11:15.727Z,10.07
2022-10-20T18:13:42.429Z,9.60
2022-10-20T18:16:11.472Z,10.17
2022-10-20T18:18:38.693Z,10.60
2022-10-20T18:21:06.856Z,10.07
2022-10-20T18:23:36.179Z,9.63
2022-10-20T18:26:08.066Z,10.67
2022-10-20T18:28:35.593Z,10.70
2022-10-20T18:31:14.605Z,11.80
2022-10-20T18:33:41.739Z,10.73
2022-10-20T18:36:10.943Z,10.60
2022-10-20T18:38:39.656Z,11.03
2022-10-20T18:41:10.910Z,9.93
2022-10-20T18:43:37.938Z,10.47
2022-10-20T18:46:09.434Z,11.00
2022-10-20T18:48:38.122Z,10.40
2022-10-20T18:51:06.674Z,8.63
2022-10-20T18:53:36.145Z,10.63
2022-10-20T18:56:08.237Z,10.40
2022-10-20T18:58:38.248Z,10.93
2022-10-20T19:01:11.319Z,9.87
2022-10-20T19:03:39.376Z,10.77
2022-10-20T19:06:12.220Z,9.47
2022-10-20T19:08:39.829Z,10.17
2022-10-20T19:11:09.370Z,9.37
2022-10-20T19:13:36.330Z,9.83
2022-10-20T19:16:11.507Z,10.40
2022-10-20T19:18:40.536Z,10.17
2022-10-20T19:21:08.132Z,9.63
2022-10-20T19:23:38.330Z,9.90
2022-10-20T19:26:13.213Z,10.10
2022-10-20T19:28:43.832Z,9.57
2022-10-20T19:31:25.182Z,8.90
2022-10-20T19:33:54.784Z,9.37
2022-10-20T19:36:22.124Z,9.03
2022-10-20T19:38:48.956Z,9.10
2022-10-20T19:41:16.090Z,9.57
2022-10-20T19:43:42.936Z,9.80
2022-10-20T19:46:13.549Z,9.90
2022-10-20T19:48:40.331Z,10.10
2022-10-20T19:51:09.610Z,11.20
2022-10-20T19:53:39.783Z,9.97
2022-10-20T19:56:08.231Z,10.20
2022-10-20T19:58:41.353Z,9.97
2022-10-20T20:01:10.959Z,10.70
2022-10-20T20:03:39.767Z,10.83
2022-10-20T20:06:09.298Z,10.00
2022-10-20T20:08:36.928Z,9.73
2022-10-20T20:11:06.352Z,10.30
2022-10-20T20:13:33.073Z,9.10
2022-10-20T20:16:07.175Z,10.60
2022-10-20T20:18:35.673Z,9.10
2022-10-20T20:21:04.806Z,10.20
2022-10-20T20:23:47.681Z,11.23
2022-10-20T20:26:21.046Z,8.60
2022-10-20T20:28:47.662Z,9.80
2022-10-20T20:31:14.611Z,10.03
2022-10-20T20:33:41.350Z,9.00
2022-10-20T20:36:09.052Z,9.03
2022-10-20T20:38:37.589Z,9.37
2022-10-20T20:41:06.940Z,8.00
2022-10-20T20:43:35.535Z,9.03
2022-10-20T20:46:08.064Z,8.80
2022-10-20T20:48:37.728Z,8.77
2022-10-20T20:51:05.268Z,8.43
2022-10-20T20:56:05.098Z,7.70
2022-10-20T20:58:32.598Z,7.93
2022-10-20T21:01:04.573Z,9.17
2022-10-20T21:03:32.534Z,7.77
2022-10-20T21:06:11.209Z,8.20
2022-10-20T21:08:39.285Z,8.47
2022-10-20T21:11:13.401Z,7.80
2022-10-20T21:13:41.553Z,8.20
2022-10-20T21:16:13.987Z,7.50
2022-10-20T21:18:42.334Z,8.23
2022-10-20T21:21:21.307Z,8.60
2022-10-20T21:23:48.217Z,8.77
2022-10-20T21:26:17.661Z,8.70
2022-10-20T21:28:44.772Z,7.13
2022-10-20T21:31:15.138Z,8.87
2022-10-20T21:33:42.350Z,7.50
2022-10-20T21:36:14.571Z,8.47
2022-10-20T21:38:42.660Z,8.17
2022-10-20T21:41:12.200Z,8.27
2022-10-20T21:43:41.679Z,8.23
2022-10-20T21:46:13.107Z,7.27
2022-10-20T21:48:40.526Z,8.63
2022-10-20T21:51:19.165Z,7.83
2022-10-20T21:53:46.003Z,8.87
2022-10-20T21:56:13.437Z,7.80
2022-10-20T21:58:40.456Z,7.70
2022-10-20T22:01:12.864Z,9.10
2022-10-20T22:03:40.462Z,8.90
2022-10-20T22:06:08.825Z,7.53
2022-10-20T22:08:37.267Z,7.90
2022-10-20T22:11:06.089Z,8.53
2022-10-20T22:13:33.241Z,8.00
2022-10-20T22:16:00.459Z,7.70
2022-10-20T22:18:27.391Z,8.27
2022-10-20T22:20:54.030Z,8.30
2022-10-20T22:23:20.726Z,7.73
2022-10-20T22:25:50.746Z,9.27
2022-10-20T22:28:17.397Z,8.00
2022-10-20T22:30:44.057Z,9.03
2022-10-20T22:33:10.676Z,9.00
2022-10-20T22:35:37.411Z,8.73
2022-10-20T22:38:04.064Z,8.50
2022-10-20T22:40:30.758Z,7.93
2022-10-20T22:42:57.424Z,8.63
2022-10-20T22:45:24.127Z,9.30
2022-10-20T22:47:50.754Z,10.53
2022-10-20T22:50:17.696Z,8.50
2022-10-20T22:52:44.394Z,9.43
2022-10-20T22:55:11.660Z,8.43
2022-10-20T22:57:38.293Z,9.63
2022-10-20T23:00:06.668Z,9.93
2022-10-20T23:02:33.523Z,9.40
2022-10-20T23:05:00.120Z,10.03
2022-10-20T23:07:26.738Z,9.27
2022-10-20T23:09:53.344Z,9.90
2022-10-20T23:12:19.981Z,10.57
2022-10-20T23:14:46.772Z,10.20
2022-10-20T23:17:13.375Z,9.47
2022-10-20T23:19:39.935Z,9.87
2022-10-20T23:22:06.631Z,9.97
2022-10-20T23:24:33.333Z,11.37
2022-10-20T23:26:59.961Z,9.93
2022-10-20T23:29:27.509Z,10.60
2022-10-20T23:31:54.112Z,11.00
2022-10-20T23:34:20.814Z,9.97
2022-10-20T23:36:47.423Z,10.30
2022-10-20T23:39:14.230Z,9.30
2022-10-20T23:41:41.009Z,10.67
2022-10-20T23:44:07.746Z,9.90
2022-10-20T23:46:35.038Z,11.70
2022-10-20T23:49:02.748Z,11.23
2022-10-20T23:51:29.586Z,10.43
2022-10-20T23:53:56.362Z,11.40
2022-10-20T23:56:23.427Z,11.53
2022-10-20T23:58:50.032Z,12.00
